createdAt,value
2023-02-06T00:01:42.283Z,2.56
2023-02-06T00:04:12.034Z,2.54
2023-02-06T00:06:40.595Z,2.51
2023-02-06T00:09:09.418Z,2.48
2023-02-06T00:11:37.986Z,2.45
2023-02-06T00:14:07.072Z,2.44
2023-02-06T00:16:36.558Z,2.42
2023-02-06T00:19:05.701Z,2.40
2023-02-06T00:21:35.468Z,2.36
2023-02-06T00:24:04.958Z,2.34
2023-02-06T00:26:33.420Z,2.31
2023-02-06T00:29:01.993Z,2.30
2023-02-06T00:31:30.783Z,2.26
2023-02-06T00:33:59.249Z,2.23
2023-02-06T00:36:27.662Z,2.14
2023-02-06T00:38:57.384Z,1.96
2023-02-06T00:41:25.783Z,1.83
2023-02-06T00:43:54.125Z,1.76
2023-02-06T00:46:22.582Z,1.80
2023-02-06T00:48:51.021Z,1.82
2023-02-06T00:51:19.344Z,1.85
2023-02-06T00:53:50.140Z,1.80
2023-02-06T00:56:20.737Z,1.75
2023-02-06T00:58:49.114Z,1.76
2023-02-06T01:01:17.556Z,1.71
2023-02-06T01:03:46.100Z,1.62
2023-02-06T01:06:14.510Z,1.60
2023-02-06T01:08:42.908Z,1.60
2023-02-06T01:11:12.324Z,1.60
2023-02-06T01:13:42.919Z,1.53
2023-02-06T01:16:13.010Z,1.45
2023-02-06T01:18:41.593Z,1.40
2023-02-06T01:21:10.439Z,1.39
2023-02-06T01:23:39.403Z,1.37
2023-02-06T01:26:08.164Z,1.43
2023-02-06T01:28:37.393Z,1.50
2023-02-06T01:31:12.935Z,1.55
2023-02-06T01:33:42.130Z,1.58
2023-02-06T01:36:11.485Z,1.53
2023-02-06T01:38:40.690Z,1.52
2023-02-06T01:41:10.141Z,1.49
2023-02-06T01:43:42.030Z,1.47
2023-02-06T01:46:12.496Z,1.50
2023-02-06T01:48:45.115Z,1.55
2023-02-06T01:51:19.926Z,1.61
2023-02-06T01:53:52.566Z,1.69
2023-02-06T01:56:23.701Z,1.77
2023-02-06T01:58:54.939Z,1.80
2023-02-06T02:01:24.667Z,1.82
2023-02-06T02:03:57.528Z,1.86
2023-02-06T02:06:27.774Z,1.92
2023-02-06T02:08:58.470Z,1.89
2023-02-06T02:11:31.414Z,1.82
2023-02-06T02:14:00.435Z,1.77
2023-02-06T02:16:43.928Z,1.78
2023-02-06T02:19:43.941Z,1.79
2023-02-06T02:22:32.305Z,1.84
2023-02-06T02:25:22.199Z,1.81
2023-02-06T02:28:12.201Z,1.80
2023-02-06T02:31:09.292Z,1.83
2023-02-06T02:34:14.581Z,1.88
2023-02-06T02:36:52.113Z,1.93
2023-02-06T02:39:31.150Z,1.98
2023-02-06T02:42:04.972Z,2.01
2023-02-06T02:44:38.992Z,2.00
2023-02-06T02:47:13.364Z,2.00
2023-02-06T02:49:43.813Z,2.02
2023-02-06T02:52:13.615Z,2.06
2023-02-06T02:54:41.961Z,2.07
2023-02-06T02:57:15.365Z,1.97
2023-02-06T02:59:46.566Z,1.95
2023-02-06T03:02:19.922Z,1.95
2023-02-06T03:04:52.675Z,1.89
2023-02-06T03:07:29.508Z,1.85
2023-02-06T03:10:06.675Z,1.85
2023-02-06T03:12:45.094Z,1.89
2023-02-06T03:15:23.196Z,1.90
2023-02-06T03:18:00.740Z,1.92
2023-02-06T03:20:32.808Z,1.84
2023-02-06T03:23:05.280Z,1.62
2023-02-06T03:25:37.332Z,1.46
2023-02-06T03:28:09.196Z,1.45
2023-02-06T03:30:40.038Z,1.52
2023-02-06T03:33:11.860Z,1.59
2023-02-06T03:35:41.333Z,1.61
2023-02-06T03:38:11.216Z,1.62
2023-02-06T03:40:42.074Z,1.61
2023-02-06T03:43:18.573Z,1.63
2023-02-06T03:45:51.750Z,1.65
2023-02-06T03:48:25.570Z,1.67
2023-02-06T03:50:56.610Z,1.69
2023-02-06T03:53:27.691Z,1.71
2023-02-06T03:56:01.898Z,1.62
2023-02-06T03:58:30.946Z,1.57
2023-02-06T04:01:01.334Z,1.56
2023-02-06T04:03:29.833Z,1.60
2023-02-06T04:05:58.850Z,1.63
2023-02-06T04:08:28.554Z,1.62
2023-02-06T04:10:56.896Z,1.62
2023-02-06T04:13:25.217Z,1.60
2023-02-06T04:15:56.220Z,1.60
2023-02-06T04:18:25.010Z,1.62
2023-02-06T04:20:53.418Z,1.62
2023-02-06T04:23:21.919Z,1.56
2023-02-06T04:25:51.605Z,1.53
2023-02-06T04:28:19.968Z,1.51
2023-02-06T04:30:49.069Z,1.53
2023-02-06T04:33:17.463Z,1.58
2023-02-06T04:35:45.721Z,1.60
2023-02-06T04:38:14.223Z,1.62
2023-02-06T04:40:42.576Z,1.62
2023-02-06T04:43:12.332Z,1.65
2023-02-06T04:45:41.876Z,1.68
2023-02-06T04:48:10.190Z,1.69
2023-02-06T04:50:38.518Z,1.69
2023-02-06T04:53:06.923Z,1.68
2023-02-06T04:55:36.705Z,1.60
2023-02-06T04:58:05.241Z,1.45
2023-02-06T05:00:35.485Z,1.32
2023-02-06T05:03:04.531Z,1.22
2023-02-06T05:05:32.985Z,1.22
2023-02-06T05:08:01.422Z,1.12
2023-02-06T05:10:29.781Z,0.97
2023-02-06T05:12:58.116Z,0.91
2023-02-06T05:15:26.470Z,0.97
2023-02-06T05:17:56.745Z,0.94
2023-02-06T05:20:25.071Z,0.85
2023-02-06T05:22:53.442Z,0.82
2023-02-06T05:25:21.784Z,0.89
2023-02-06T05:27:51.345Z,1.00
2023-02-06T05:30:20.257Z,1.03
2023-02-06T05:32:57.936Z,0.97
2023-02-06T05:35:26.277Z,1.05
2023-02-06T05:37:54.571Z,1.07
2023-02-06T05:40:22.897Z,1.06
2023-02-06T05:42:51.688Z,1.12
2023-02-06T05:45:24.335Z,1.16
2023-02-06T05:47:53.712Z,1.24
2023-02-06T05:50:23.542Z,1.30
2023-02-06T05:52:53.217Z,1.33
2023-02-06T05:55:21.499Z,1.32
2023-02-06T05:57:49.867Z,1.32
2023-02-06T06:00:18.769Z,1.30
2023-02-06T06:02:47.080Z,1.28
2023-02-06T06:05:15.443Z,1.25
2023-02-06T06:07:45.206Z,1.26
2023-02-06T06:10:13.666Z,1.22
2023-02-06T06:12:42.026Z,1.24
2023-02-06T06:15:11.581Z,1.26
2023-02-06T06:17:39.885Z,1.27
2023-02-06T06:20:08.631Z,1.17
2023-02-06T06:22:37.490Z,1.14
2023-02-06T06:25:08.013Z,1.14
2023-02-06T06:27:36.338Z,1.17
2023-02-06T06:30:05.136Z,1.13
2023-02-06T06:32:33.429Z,1.01
2023-02-06T06:35:01.801Z,0.87
2023-02-06T06:37:30.219Z,0.87
2023-02-06T06:39:58.572Z,0.95
2023-02-06T06:42:28.271Z,0.96
2023-02-06T06:44:56.620Z,0.98
2023-02-06T06:47:25.146Z,0.97
2023-02-06T06:49:53.826Z,0.99
2023-02-06T06:52:25.453Z,0.99
2023-02-06T06:54:54.301Z,0.97
2023-02-06T06:57:22.923Z,1.00
2023-02-06T06:59:52.948Z,1.05
2023-02-06T07:02:21.240Z,1.09
2023-02-06T07:04:49.493Z,1.11
2023-02-06T07:07:17.845Z,1.11
2023-02-06T07:09:46.236Z,1.10
2023-02-06T07:12:14.571Z,1.09
2023-02-06T07:14:42.845Z,1.09
2023-02-06T07:17:12.650Z,1.10
2023-02-06T07:19:41.207Z,1.14
2023-02-06T07:22:09.530Z,1.18
2023-02-06T07:24:37.861Z,1.24
2023-02-06T07:27:06.277Z,1.30
2023-02-06T07:29:34.608Z,1.33
2023-02-06T07:32:02.978Z,1.37
2023-02-06T07:34:32.642Z,1.41
2023-02-06T07:37:01.752Z,1.44
2023-02-06T07:39:30.546Z,1.44
2023-02-06T07:41:58.831Z,1.46
2023-02-06T07:44:27.432Z,1.49
2023-02-06T07:46:56.978Z,1.46
2023-02-06T07:49:25.388Z,1.43
2023-02-06T07:51:55.037Z,1.43
2023-02-06T07:54:23.465Z,1.47
2023-02-06T07:56:51.757Z,1.54
2023-02-06T07:59:20.294Z,1.60
2023-02-06T08:01:48.598Z,1.62
2023-02-06T08:04:17.038Z,1.68
2023-02-06T08:06:46.985Z,1.71
2023-02-06T08:09:18.175Z,1.72
2023-02-06T08:11:46.561Z,1.73
2023-02-06T08:14:14.906Z,1.76
2023-02-06T08:16:43.355Z,1.81
2023-02-06T08:19:12.368Z,1.83
2023-02-06T08:21:40.693Z,1.86
2023-02-06T08:24:11.822Z,1.91
2023-02-06T08:26:41.642Z,1.93
2023-02-06T08:29:10.035Z,1.93
2023-02-06T08:31:40.670Z,1.94
2023-02-06T08:34:12.313Z,1.96
2023-02-06T08:36:43.121Z,1.99
2023-02-06T08:39:14.435Z,2.03
2023-02-06T08:41:45.270Z,2.04
2023-02-06T08:44:16.058Z,2.02
2023-02-06T08:46:45.848Z,1.94
2023-02-06T08:49:16.195Z,1.84
2023-02-06T08:51:44.966Z,1.68
2023-02-06T08:54:15.762Z,1.62
2023-02-06T08:56:45.916Z,1.66
2023-02-06T08:59:15.633Z,1.72
2023-02-06T09:01:45.750Z,1.82
2023-02-06T09:04:15.291Z,1.88
2023-02-06T09:06:45.840Z,1.86
2023-02-06T09:09:14.264Z,1.88
2023-02-06T09:11:43.265Z,1.93
2023-02-06T09:14:16.444Z,1.97
2023-02-06T09:16:45.362Z,2.02
2023-02-06T09:19:14.163Z,2.06
2023-02-06T09:21:42.869Z,2.08
2023-02-06T09:24:11.543Z,2.09
2023-02-06T09:26:58.190Z,2.10
2023-02-06T09:29:31.413Z,2.15
2023-02-06T09:32:00.741Z,2.19
2023-02-06T09:34:29.954Z,2.21
2023-02-06T09:36:58.390Z,2.15
2023-02-06T09:39:27.124Z,2.12
2023-02-06T09:42:00.791Z,2.11
2023-02-06T09:44:33.619Z,2.13
2023-02-06T09:47:07.212Z,2.16
2023-02-06T09:49:39.277Z,2.20
2023-02-06T09:52:17.860Z,2.19
2023-02-06T09:54:54.715Z,2.23
2023-02-06T09:57:35.939Z,2.29
2023-02-06T10:00:12.941Z,2.31
2023-02-06T10:03:07.986Z,2.34
2023-02-06T10:05:48.749Z,2.41
2023-02-06T10:08:23.811Z,2.53
2023-02-06T10:10:55.428Z,2.63
2023-02-06T10:13:34.082Z,2.76
2023-02-06T10:16:07.301Z,2.91
2023-02-06T10:18:41.262Z,3.03
2023-02-06T10:21:20.502Z,3.10
2023-02-06T10:23:57.680Z,3.13
2023-02-06T10:26:26.099Z,3.15
2023-02-06T10:28:56.973Z,3.19
2023-02-06T10:31:44.938Z,3.28
2023-02-06T10:34:33.825Z,3.32
2023-02-06T10:37:18.025Z,3.35
2023-02-06T10:40:02.710Z,3.41
2023-02-06T10:42:44.917Z,3.46
2023-02-06T10:45:25.858Z,3.57
2023-02-06T10:48:02.952Z,3.68
2023-02-06T10:50:35.249Z,3.80
2023-02-06T10:53:07.363Z,3.85
2023-02-06T10:55:46.066Z,3.95
2023-02-06T10:58:20.142Z,4.02
2023-02-06T11:00:51.212Z,4.01
2023-02-06T11:03:25.790Z,3.99
2023-02-06T11:05:54.684Z,3.98
2023-02-06T11:08:27.265Z,4.05
2023-02-06T11:10:56.479Z,4.08
2023-02-06T11:13:28.288Z,4.07
2023-02-06T11:16:03.907Z,4.06
2023-02-06T11:18:37.282Z,4.05
2023-02-06T11:21:06.518Z,3.99
2023-02-06T11:23:35.164Z,3.97
2023-02-06T11:26:10.718Z,4.00
2023-02-06T11:28:42.490Z,4.12
2023-02-06T11:31:11.332Z,4.13
2023-02-06T11:33:47.316Z,4.21
2023-02-06T11:36:27.056Z,4.22
2023-02-06T11:38:58.213Z,4.22
2023-02-06T11:41:27.134Z,4.27
2023-02-06T11:44:02.420Z,4.33
2023-02-06T11:46:35.157Z,4.40
2023-02-06T11:49:08.275Z,4.41
2023-02-06T11:51:49.394Z,4.42
2023-02-06T11:54:28.071Z,4.43
2023-02-06T11:57:00.352Z,4.39
2023-02-06T11:59:29.668Z,4.32
2023-02-06T12:02:01.416Z,4.27
2023-02-06T12:04:35.144Z,4.24
2023-02-06T12:07:11.746Z,4.22
2023-02-06T12:09:40.347Z,4.19
2023-02-06T12:12:20.934Z,4.16
2023-02-06T12:14:54.868Z,4.12
2023-02-06T12:17:28.376Z,4.11
2023-02-06T12:20:07.097Z,4.00
2023-02-06T12:22:42.255Z,3.90
2023-02-06T12:25:40.632Z,3.73
2023-02-06T12:28:14.756Z,3.72
2023-02-06T12:30:52.339Z,3.70
2023-02-06T12:33:25.615Z,3.65
2023-02-06T12:35:59.542Z,3.64
2023-02-06T12:38:36.775Z,3.62
2023-02-06T12:41:19.440Z,3.61
2023-02-06T12:43:56.280Z,3.57
2023-02-06T12:46:27.945Z,3.52
2023-02-06T12:49:03.422Z,3.49
2023-02-06T12:51:40.952Z,3.43
2023-02-06T12:54:17.227Z,3.39
2023-02-06T12:56:51.173Z,3.40
2023-02-06T12:59:57.163Z,3.42
2023-02-06T13:02:49.204Z,3.43
2023-02-06T13:05:23.646Z,3.41
2023-02-06T13:07:56.263Z,3.33
2023-02-06T13:10:27.170Z,3.31
2023-02-06T13:12:57.032Z,3.26
2023-02-06T13:15:27.499Z,3.26
2023-02-06T13:17:56.232Z,3.24
2023-02-06T13:20:26.520Z,3.21
2023-02-06T13:23:18.182Z,3.17
2023-02-06T13:25:49.614Z,3.13
2023-02-06T13:28:56.235Z,3.10
2023-02-06T13:31:35.415Z,3.06
2023-02-06T13:34:09.151Z,3.02
2023-02-06T13:36:47.740Z,3.01
2023-02-06T13:39:31.469Z,2.93
2023-02-06T13:42:23.657Z,2.91
2023-02-06T13:44:53.619Z,2.89
2023-02-06T13:48:11.551Z,2.89
2023-02-06T13:50:58.553Z,2.90
2023-02-06T13:53:54.671Z,2.91
2023-02-06T13:56:51.426Z,2.93
2023-02-06T13:59:23.914Z,2.93
2023-02-06T14:01:53.254Z,2.91
2023-02-06T14:04:26.141Z,2.87
2023-02-06T14:07:18.851Z,2.86
2023-02-06T14:10:19.778Z,2.84
2023-02-06T14:13:01.715Z,2.81
2023-02-06T14:15:36.987Z,2.81
2023-02-06T14:18:30.367Z,2.82
2023-02-06T14:21:09.363Z,2.82
2023-02-06T14:24:14.925Z,2.78
2023-02-06T14:27:00.898Z,2.78
2023-02-06T14:29:42.114Z,2.77
2023-02-06T14:32:29.124Z,2.79
2023-02-06T14:35:17.055Z,2.82
2023-02-06T14:38:06.509Z,2.79
2023-02-06T14:40:39.613Z,2.82
2023-02-06T14:43:14.769Z,2.82
2023-02-06T14:46:04.238Z,2.83
2023-02-06T14:48:40.049Z,2.80
2023-02-06T14:51:15.956Z,2.76
2023-02-06T14:53:53.577Z,2.64
2023-02-06T14:56:27.698Z,2.55
2023-02-06T14:58:56.688Z,2.47
2023-02-06T15:01:32.679Z,2.37
2023-02-06T15:04:12.062Z,2.40
2023-02-06T15:06:42.514Z,2.47
2023-02-06T15:09:24.167Z,2.48
2023-02-06T15:11:54.507Z,2.49
2023-02-06T15:14:24.882Z,2.50
2023-02-06T15:16:59.200Z,2.51
2023-02-06T15:19:29.595Z,2.53
2023-02-06T15:22:01.924Z,2.55
2023-02-06T15:24:57.449Z,2.53
2023-02-06T15:27:30.167Z,2.49
2023-02-06T15:29:59.298Z,2.50
2023-02-06T15:32:31.110Z,2.50
2023-02-06T15:35:00.415Z,2.51
2023-02-06T15:37:30.380Z,2.44
2023-02-06T15:40:06.054Z,2.32
2023-02-06T15:42:34.836Z,2.32
2023-02-06T15:45:03.378Z,2.36
2023-02-06T15:47:33.820Z,2.35
2023-02-06T15:50:02.273Z,2.34
2023-02-06T15:52:36.827Z,2.36
2023-02-06T15:55:05.920Z,2.38
2023-02-06T15:57:36.411Z,2.39
2023-02-06T16:00:09.521Z,2.41
2023-02-06T16:02:41.786Z,2.39
2023-02-06T16:05:25.150Z,2.38
2023-02-06T16:07:54.498Z,2.35
2023-02-06T16:10:26.104Z,2.31
2023-02-06T16:12:57.284Z,2.31
2023-02-06T16:15:28.989Z,2.28
2023-02-06T16:18:01.049Z,2.25
2023-02-06T16:20:39.620Z,2.24
2023-02-06T16:23:26.899Z,2.19
2023-02-06T16:26:05.357Z,2.17
2023-02-06T16:28:40.182Z,2.13
2023-02-06T16:31:14.595Z,2.08
2023-02-06T16:33:46.490Z,2.09
2023-02-06T16:36:16.327Z,2.10
2023-02-06T16:38:54.063Z,2.07
2023-02-06T16:41:29.997Z,2.07
2023-02-06T16:43:59.613Z,2.06
2023-02-06T16:46:28.937Z,2.03
2023-02-06T16:49:00.666Z,2.02
2023-02-06T16:51:31.268Z,1.99
2023-02-06T16:53:59.783Z,1.97
2023-02-06T16:56:28.337Z,1.95
2023-02-06T16:58:56.964Z,1.96
2023-02-06T17:01:29.532Z,1.95
2023-02-06T17:03:59.524Z,1.94
2023-02-06T17:06:30.985Z,1.91
2023-02-06T17:09:04.464Z,1.91
2023-02-06T17:11:34.863Z,1.91
2023-02-06T17:14:03.844Z,1.89
2023-02-06T17:16:33.705Z,1.89
2023-02-06T17:19:03.662Z,1.91
2023-02-06T17:21:33.173Z,1.94
2023-02-06T17:24:01.768Z,1.93
2023-02-06T17:26:30.174Z,1.94
2023-02-06T17:28:58.644Z,1.93
2023-02-06T17:31:27.120Z,1.90
2023-02-06T17:33:55.554Z,1.77
2023-02-06T17:36:29.536Z,1.74
2023-02-06T17:38:59.142Z,1.76
2023-02-06T17:41:28.133Z,1.83
2023-02-06T17:43:56.548Z,1.85
2023-02-06T17:46:24.976Z,1.86
2023-02-06T17:48:53.353Z,1.84
2023-02-06T17:51:21.966Z,1.87
2023-02-06T17:53:53.688Z,1.88
2023-02-06T17:56:22.804Z,1.88
2023-02-06T17:58:51.192Z,1.88
2023-02-06T18:01:22.987Z,1.89
2023-02-06T18:03:51.778Z,1.89
2023-02-06T18:06:21.582Z,1.90
2023-02-06T18:08:49.991Z,1.91
2023-02-06T18:11:21.745Z,1.92
2023-02-06T18:13:50.938Z,1.90
2023-02-06T18:16:21.160Z,1.89
2023-02-06T18:18:50.656Z,1.89
2023-02-06T18:21:21.747Z,1.89
2023-02-06T18:23:50.251Z,1.87
2023-02-06T18:26:20.414Z,1.87
2023-02-06T18:28:48.809Z,1.87
2023-02-06T18:31:26.720Z,1.90
2023-02-06T18:33:56.296Z,1.91
2023-02-06T18:36:25.543Z,1.95
2023-02-06T18:38:54.355Z,1.94
2023-02-06T18:41:41.857Z,1.96
2023-02-06T18:44:11.643Z,1.97
2023-02-06T18:46:40.507Z,1.96
2023-02-06T18:49:08.959Z,1.96
2023-02-06T18:51:37.729Z,1.97
2023-02-06T18:54:07.738Z,1.96
2023-02-06T18:56:37.818Z,1.94
2023-02-06T18:59:06.910Z,1.92
2023-02-06T19:01:35.531Z,1.91
2023-02-06T19:04:04.056Z,1.88
2023-02-06T19:06:35.540Z,1.86
2023-02-06T19:09:07.061Z,1.85
2023-02-06T19:11:37.934Z,1.84
2023-02-06T19:14:08.357Z,1.84
2023-02-06T19:16:38.425Z,1.83
2023-02-06T19:19:08.663Z,1.82
2023-02-06T19:21:37.053Z,1.82
2023-02-06T19:24:06.400Z,1.79
2023-02-06T19:26:35.016Z,1.80
2023-02-06T19:29:05.186Z,1.79
2023-02-06T19:31:34.930Z,1.79
2023-02-06T19:34:03.697Z,1.79
2023-02-06T19:36:32.442Z,1.80
2023-02-06T19:39:02.947Z,1.81
2023-02-06T19:41:33.343Z,1.82
2023-02-06T19:44:05.709Z,1.82
2023-02-06T19:46:35.174Z,1.81
2023-02-06T19:49:05.613Z,1.80
2023-02-06T19:51:38.019Z,1.79
2023-02-06T19:54:06.540Z,1.78
2023-02-06T19:56:39.329Z,1.77
2023-02-06T19:59:18.004Z,1.77
2023-02-06T20:01:47.178Z,1.73
2023-02-06T20:04:16.322Z,1.70
2023-02-06T20:06:45.588Z,1.70
2023-02-06T20:09:16.357Z,1.70
2023-02-06T20:11:44.884Z,1.71
2023-02-06T20:14:14.657Z,1.71
2023-02-06T20:16:43.769Z,1.69
2023-02-06T20:19:14.242Z,1.66
2023-02-06T20:21:45.077Z,1.64
2023-02-06T20:24:18.428Z,1.60
2023-02-06T20:26:47.735Z,1.57
2023-02-06T20:29:21.583Z,1.53
2023-02-06T20:31:50.904Z,1.47
2023-02-06T20:34:20.315Z,1.40
2023-02-06T20:36:49.220Z,1.32
2023-02-06T20:39:18.003Z,1.26
2023-02-06T20:41:46.898Z,1.18
2023-02-06T20:44:15.467Z,1.14
2023-02-06T20:46:45.332Z,1.06
2023-02-06T20:49:15.877Z,1.02
2023-02-06T20:51:44.481Z,1.01
2023-02-06T20:54:13.077Z,0.98
2023-02-06T20:56:42.363Z,0.99
2023-02-06T20:59:14.340Z,0.98
2023-02-06T21:01:43.094Z,0.99
2023-02-06T21:04:14.573Z,0.96
2023-02-06T21:06:43.428Z,0.94
2023-02-06T21:09:12.743Z,0.90
2023-02-06T21:11:45.195Z,0.88
2023-02-06T21:14:16.133Z,0.90
2023-02-06T21:16:44.777Z,0.89
2023-02-06T21:19:16.836Z,0.87
2023-02-06T21:21:46.289Z,0.86
2023-02-06T21:24:15.787Z,0.84
2023-02-06T21:26:44.801Z,0.81
2023-02-06T21:29:14.143Z,0.82
2023-02-06T21:31:43.134Z,0.80
2023-02-06T21:34:17.441Z,0.77
2023-02-06T21:36:46.516Z,0.73
2023-02-06T21:39:17.755Z,0.68
2023-02-06T21:41:46.609Z,0.65
2023-02-06T21:44:14.988Z,0.64
2023-02-06T21:46:43.362Z,0.59
2023-02-06T21:49:11.866Z,0.57
2023-02-06T21:51:41.721Z,0.54
2023-02-06T21:54:10.269Z,0.58
2023-02-06T21:56:39.405Z,0.59
2023-02-06T21:59:08.532Z,0.59
2023-02-06T22:01:39.020Z,0.58
2023-02-06T22:04:08.545Z,0.57
2023-02-06T22:06:37.411Z,0.56
2023-02-06T22:09:09.030Z,0.56
2023-02-06T22:11:40.085Z,0.51
2023-02-06T22:14:12.073Z,0.50
2023-02-06T22:16:40.578Z,0.46
2023-02-06T22:19:09.612Z,0.41
2023-02-06T22:21:38.145Z,0.39
2023-02-06T22:24:09.447Z,0.36
2023-02-06T22:26:39.539Z,0.33
2023-02-06T22:29:09.644Z,0.30
2023-02-06T22:31:40.312Z,0.28
2023-02-06T22:34:11.775Z,0.28
2023-02-06T22:36:40.433Z,0.26
2023-02-06T22:39:13.212Z,0.26
2023-02-06T22:41:43.694Z,0.24
2023-02-06T22:44:16.211Z,0.19
2023-02-06T22:46:46.469Z,0.18
2023-02-06T22:49:15.497Z,0.15
2023-02-06T22:51:44.727Z,0.14
2023-02-06T22:54:14.955Z,0.11
2023-02-06T22:56:44.097Z,0.12
2023-02-06T22:59:14.506Z,0.14
2023-02-06T23:01:44.808Z,0.14
2023-02-06T23:04:14.981Z,0.13
2023-02-06T23:06:44.043Z,0.12
2023-02-06T23:09:16.761Z,0.10
2023-02-06T23:11:45.829Z,0.09
2023-02-06T23:14:20.361Z,0.07
2023-02-06T23:16:49.495Z,0.06
2023-02-06T23:19:19.194Z,0.01
2023-02-06T23:21:49.764Z,-0.04
2023-02-06T23:24:20.344Z,-0.08
2023-02-06T23:26:51.263Z,-0.08
2023-02-06T23:29:21.325Z,-0.08
2023-02-06T23:31:49.865Z,-0.06
2023-02-06T23:34:19.280Z,-0.06
2023-02-06T23:36:48.306Z,-0.06
2023-02-06T23:39:17.026Z,-0.09
2023-02-06T23:41:46.738Z,-0.12
2023-02-06T23:44:15.075Z,-0.14
2023-02-06T23:46:43.556Z,-0.13
2023-02-06T23:49:12.083Z,-0.17
2023-02-06T23:51:40.525Z,-0.20
2023-02-06T23:54:09.618Z,-0.20
2023-02-06T23:56:38.381Z,-0.22
2023-02-06T23:59:08.102Z,-0.23
